Time;durP1;ratioP1;P1;durP2;ratioP2;P2;SDS_P1;SDS_P2;PMS_P1;PMS_P2;Temp;Humidity;BMP_temperature;BMP_pressure;BME280_temperature;BME280_humidity;BME280_pressure;Samples;Min_cycle;Max_cycle;Signal;HPM_P1;HPM_P2
2021/05/07 00:00:36;;;;;;;28.48;19.13;;;5.50;99.90;;;;;;5030919;28;20479;-53
2021/05/07 00:03:03;;;;;;;24.95;18.63;;;5.50;99.90;;;;;;5031079;28;20076;-54
2021/05/07 00:05:28;;;;;;;25.80;18.02;;;5.40;99.90;;;;;;5030657;28;20045;-57
2021/05/07 00:07:54;;;;;;;25.48;19.67;;;5.30;99.90;;;;;;5031012;28;20083;-56
2021/05/07 00:10:22;;;;;;;26.25;20.42;;;5.30;99.90;;;;;;5031468;28;20417;-55
2021/05/07 00:12:47;;;;;;;27.73;20.65;;;5.30;99.90;;;;;;5025067;28;20080;-54
2021/05/07 00:15:13;;;;;;;27.50;20.10;;;5.20;99.90;;;;;;5030296;28;20029;-55
2021/05/07 00:17:39;;;;;;;26.48;21.05;;;5.30;99.90;;;;;;5030325;28;20112;-54
2021/05/07 00:20:05;;;;;;;31.08;21.58;;;5.30;99.90;;;;;;5031139;28;20520;-57
2021/05/07 00:22:30;;;;;;;29.00;22.23;;;5.30;99.90;;;;;;5030800;28;20482;-56
2021/05/07 00:24:56;;;;;;;27.95;20.65;;;5.30;99.90;;;;;;5030885;28;20071;-53
2021/05/07 00:27:21;;;;;;;31.05;22.55;;;5.40;99.90;;;;;;5030378;28;20044;-57
2021/05/07 00:29:47;;;;;;;29.55;21.98;;;5.40;99.90;;;;;;5029772;28;20509;-57
2021/05/07 00:32:15;;;;;;;27.65;21.05;;;5.30;99.90;;;;;;5029891;28;20029;-57
2021/05/07 00:34:41;;;;;;;33.38;22.20;;;5.30;99.90;;;;;;5030793;28;20118;-57
2021/05/07 00:37:07;;;;;;;29.52;21.73;;;5.40;99.90;;;;;;5030178;28;20060;-55
2021/05/07 00:39:32;;;;;;;31.80;22.02;;;5.30;99.90;;;;;;5033431;28;20021;-54
2021/05/07 00:42:05;;;;;;;34.38;24.45;;;5.20;99.90;;;;;;5030233;28;20028;-57
2021/05/07 00:44:32;;;;;;;35.20;25.10;;;5.20;99.90;;;;;;5030245;28;20034;-55
2021/05/07 00:47:04;;;;;;;31.77;23.95;;;5.10;99.90;;;;;;5027688;28;20057;-57
2021/05/07 00:49:36;;;;;;;35.78;24.85;;;5.10;99.90;;;;;;5012709;28;20034;-57
2021/05/07 00:52:05;;;;;;;32.92;24.55;;;5.00;99.90;;;;;;5029188;28;20124;-54
2021/05/07 00:54:35;;;;;;;39.25;26.45;;;4.90;99.90;;;;;;5030599;28;20052;-56
2021/05/07 00:57:01;;;;;;;39.45;26.40;;;4.80;99.90;;;;;;5025701;28;20100;-53
2021/05/07 00:59:27;;;;;;;39.83;28.38;;;4.70;99.90;;;;;;5029554;28;20033;-56
2021/05/07 01:01:53;;;;;;;39.75;28.10;;;4.70;99.90;;;;;;5029310;28;20026;-55
2021/05/07 01:04:18;;;;;;;42.70;29.52;;;4.70;99.90;;;;;;5023416;28;20038;-56
2021/05/07 01:06:44;;;;;;;46.35;30.88;;;4.70;99.90;;;;;;5029933;28;20029;-56
2021/05/07 01:09:10;;;;;;;45.03;29.88;;;4.70;99.90;;;;;;5030151;28;20037;-56
2021/05/07 01:11:36;;;;;;;47.35;30.75;;;4.80;99.90;;;;;;5030289;28;20133;-54
2021/05/07 01:14:02;;;;;;;44.03;29.25;;;4.80;99.90;;;;;;5030147;28;20550;-56
2021/05/07 01:16:31;;;;;;;45.33;30.17;;;4.90;99.90;;;;;;5024078;28;20113;-54
2021/05/07 01:18:56;;;;;;;44.08;28.63;;;4.90;99.90;;;;;;5027505;28;20025;-57
2021/05/07 01:21:22;;;;;;;44.00;30.17;;;4.90;99.90;;;;;;5029929;28;20112;-57
2021/05/07 01:23:47;;;;;;;49.38;30.83;;;4.80;99.90;;;;;;5029684;28;20042;-57
2021/05/07 01:26:13;;;;;;;45.75;30.58;;;4.70;99.90;;;;;;5030464;28;20033;-58
2021/05/07 01:28:38;;;;;;;55.85;33.53;;;4.60;99.90;;;;;;5030421;28;20041;-59
2021/05/07 01:31:04;;;;;;;47.42;31.45;;;4.50;99.90;;;;;;5029898;28;20052;-58
2021/05/07 01:33:30;;;;;;;50.22;32.42;;;4.50;99.90;;;;;;5029960;28;20499;-57
2021/05/07 01:35:55;;;;;;;50.58;32.88;;;4.50;99.90;;;;;;5029248;28;20025;-53
2021/05/07 01:38:21;;;;;;;52.65;32.53;;;4.50;99.90;;;;;;5029918;28;20446;-57
2021/05/07 01:40:49;;;;;;;50.60;33.33;;;4.50;99.90;;;;;;5029667;28;20065;-54
2021/05/07 01:43:15;;;;;;;52.63;31.90;;;4.60;99.90;;;;;;5029191;28;20026;-53
2021/05/07 01:45:44;;;;;;;49.25;31.58;;;4.70;99.90;;;;;;5028204;28;20118;-56
2021/05/07 01:48:11;;;;;;;48.20;32.42;;;4.70;99.90;;;;;;5029390;28;20100;-55
2021/05/07 01:50:38;;;;;;;45.70;31.35;;;4.70;99.90;;;;;;5026336;28;20621;-57
2021/05/07 01:53:05;;;;;;;48.53;30.75;;;4.70;99.90;;;;;;5028433;28;20116;-56
2021/05/07 01:55:35;;;;;;;45.50;30.73;;;4.80;99.90;;;;;;5028745;28;20048;-58
2021/05/07 01:58:02;;;;;;;43.20;30.05;;;4.90;99.90;;;;;;5029681;28;20155;-53
2021/05/07 02:00:29;;;;;;;41.78;29.23;;;4.90;99.90;;;;;;5028896;28;20040;-53
2021/05/07 02:02:56;;;;;;;41.28;29.15;;;5.00;99.90;;;;;;5029479;28;20132;-56
2021/05/07 02:05:23;;;;;;;40.65;29.15;;;5.00;99.90;;;;;;5028993;28;20479;-53
2021/05/07 02:07:50;;;;;;;41.78;29.08;;;4.90;99.90;;;;;;5029434;28;20053;-55
2021/05/07 02:10:18;;;;;;;39.92;28.63;;;5.00;99.90;;;;;;5029549;28;20399;-55
2021/05/07 02:12:44;;;;;;;41.33;29.20;;;5.00;99.90;;;;;;5029236;28;20053;-57
2021/05/07 02:15:15;;;;;;;40.75;28.95;;;5.00;99.90;;;;;;5029231;28;20025;-55
2021/05/07 02:17:41;;;;;;;40.47;29.23;;;5.10;99.90;;;;;;5028542;28;20030;-56
2021/05/07 02:20:08;;;;;;;44.67;30.45;;;5.10;99.90;;;;;;5033310;28;20036;-54
2021/05/07 02:22:34;;;;;;;42.03;29.27;;;5.10;99.90;;;;;;5031334;28;20518;-58
2021/05/07 02:25:00;;;;;;;41.40;27.85;;;5.20;99.90;;;;;;5033270;28;20047;-54
2021/05/07 02:27:26;;;;;;;41.00;28.73;;;5.20;99.90;;;;;;5032512;28;20045;-57
2021/05/07 02:29:51;;;;;;;42.47;29.95;;;5.10;99.90;;;;;;5039961;28;20112;-56
2021/05/07 02:32:17;;;;;;;39.00;28.67;;;5.20;99.90;;;;;;5032569;28;20029;-57
2021/05/07 02:34:43;;;;;;;42.53;30.00;;;5.20;99.90;;;;;;5032529;28;20075;-57
2021/05/07 02:37:09;;;;;;;42.42;29.67;;;5.20;99.90;;;;;;5032821;28;20021;-52
2021/05/07 02:39:35;;;;;;;42.80;30.45;;;5.20;99.90;;;;;;5032944;28;20033;-57
2021/05/07 02:42:01;;;;;;;47.10;31.38;;;5.20;99.90;;;;;;5032374;28;20033;-55
2021/05/07 02:44:27;;;;;;;42.30;30.23;;;5.20;99.90;;;;;;5031045;28;20087;-55
2021/05/07 02:46:53;;;;;;;44.15;31.80;;;5.20;99.90;;;;;;5025683;28;20029;-51
2021/05/07 02:49:18;;;;;;;44.00;30.77;;;5.20;99.90;;;;;;5030124;28;20521;-55
2021/05/07 02:51:44;;;;;;;45.22;29.85;;;5.30;99.90;;;;;;5032523;28;20033;-56
2021/05/07 02:54:09;;;;;;;47.30;30.13;;;5.30;99.90;;;;;;5032099;28;20112;-56
2021/05/07 02:56:35;;;;;;;42.75;28.95;;;5.30;99.90;;;;;;5025420;28;20075;-52
2021/05/07 02:59:01;;;;;;;46.88;29.85;;;5.30;99.90;;;;;;5032912;28;20029;-54
2021/05/07 03:01:26;;;;;;;43.28;30.02;;;5.30;99.90;;;;;;5031818;28;20033;-55
2021/05/07 03:03:52;;;;;;;43.60;30.80;;;5.30;99.90;;;;;;5032216;28;20454;-56
2021/05/07 03:06:17;;;;;;;46.00;32.67;;;5.20;99.90;;;;;;5031995;28;20764;-53
2021/05/07 03:08:43;;;;;;;45.80;30.85;;;5.30;99.90;;;;;;5032278;28;20040;-56
2021/05/07 03:11:09;;;;;;;53.83;33.03;;;5.30;99.90;;;;;;5031770;28;20071;-58
2021/05/07 03:13:35;;;;;;;49.38;33.30;;;5.30;99.90;;;;;;5032373;28;20028;-54
2021/05/07 03:16:00;;;;;;;49.40;32.95;;;5.30;99.90;;;;;;5029800;28;20029;-53
2021/05/07 03:18:27;;;;;;;49.50;33.13;;;5.40;99.90;;;;;;5031871;28;20028;-54
2021/05/07 03:20:53;;;;;;;50.90;33.17;;;5.40;99.90;;;;;;5032389;28;20060;-56
2021/05/07 03:23:19;;;;;;;53.00;34.60;;;5.40;99.90;;;;;;5031044;28;20040;-55
2021/05/07 03:25:45;;;;;;;52.05;31.27;;;5.40;99.90;;;;;;5031891;28;20034;-54
2021/05/07 03:28:11;;;;;;;48.65;33.05;;;5.30;99.90;;;;;;5031599;28;20022;-54
2021/05/07 03:30:37;;;;;;;54.55;34.55;;;5.30;99.90;;;;;;5027867;28;20108;-54
2021/05/07 03:33:04;;;;;;;49.92;34.13;;;5.30;99.90;;;;;;5032111;28;20786;-53
2021/05/07 03:35:34;;;;;;;52.65;35.20;;;5.30;99.90;;;;;;5031703;28;20053;-54
2021/05/07 03:38:00;;;;;;;54.72;33.15;;;5.30;99.90;;;;;;5032345;28;20057;-56
2021/05/07 03:40:26;;;;;;;52.60;33.65;;;5.30;99.90;;;;;;5031975;28;20065;-53
2021/05/07 03:42:52;;;;;;;50.28;34.35;;;5.30;99.90;;;;;;5031662;28;20574;-54
2021/05/07 03:45:18;;;;;;;49.10;33.67;;;5.30;99.90;;;;;;5030817;28;20124;-53
2021/05/07 03:47:44;;;;;;;54.00;34.25;;;5.20;99.90;;;;;;5023664;28;20021;-55
2021/05/07 03:50:11;;;;;;;50.78;34.42;;;5.20;99.90;;;;;;5031492;28;20099;-57
2021/05/07 03:52:38;;;;;;;52.17;34.33;;;5.20;99.90;;;;;;5031673;28;20037;-56
2021/05/07 03:55:06;;;;;;;59.67;37.38;;;5.20;99.90;;;;;;5031790;28;20064;-56
2021/05/07 03:57:32;;;;;;;53.05;33.97;;;5.30;99.90;;;;;;5013098;28;20017;-56
2021/05/07 03:59:57;;;;;;;57.88;34.38;;;5.30;99.90;;;;;;5029026;28;20033;-54
2021/05/07 04:02:24;;;;;;;53.72;36.28;;;5.30;99.90;;;;;;5031355;28;20108;-55
2021/05/07 04:04:54;;;;;;;54.08;35.97;;;5.30;99.90;;;;;;5031490;28;20025;-55
2021/05/07 04:07:20;;;;;;;57.15;34.67;;;5.30;99.90;;;;;;5030867;28;20056;-54
2021/05/07 04:10:14;;;;;;;54.40;35.90;;;5.30;99.90;;;;;;4999553;28;20135;-55
2021/05/07 04:15:01;;;;;;;58.08;35.45;;;5.30;99.90;;;;;;5027369;28;20028;-56
2021/05/07 04:17:27;;;;;;;53.70;35.58;;;5.40;99.90;;;;;;5026696;28;20033;-53
2021/05/07 04:19:52;;;;;;;50.33;35.13;;;5.40;99.90;;;;;;5029175;28;20045;-54
2021/05/07 04:22:18;;;;;;;54.33;35.55;;;5.30;99.90;;;;;;5029864;28;20052;-55
2021/05/07 04:24:43;;;;;;;53.60;35.13;;;5.40;99.90;;;;;;5029855;28;20044;-57
2021/05/07 04:27:10;;;;;;;55.72;37.45;;;5.30;99.90;;;;;;5028886;28;20033;-56
2021/05/07 04:29:35;;;;;;;52.22;33.60;;;5.40;99.90;;;;;;5030418;28;20422;-58
2021/05/07 04:32:01;;;;;;;58.42;35.97;;;5.30;99.90;;;;;;5029651;28;20025;-53
2021/05/07 04:34:27;;;;;;;54.45;33.63;;;5.30;99.90;;;;;;5030036;28;20033;-56
2021/05/07 04:36:53;;;;;;;63.05;38.65;;;5.30;99.90;;;;;;5029593;28;20368;-53
2021/05/07 04:39:19;;;;;;;57.05;37.67;;;5.30;99.90;;;;;;5029392;28;20029;-53
2021/05/07 04:41:45;;;;;;;58.28;36.33;;;5.30;99.90;;;;;;5028269;28;20491;-57
2021/05/07 04:44:10;;;;;;;58.92;36.58;;;5.20;99.90;;;;;;5029631;28;20037;-56
2021/05/07 04:46:39;;;;;;;76.57;44.35;;;5.30;99.90;;;;;;5024987;28;20025;-53
2021/05/07 04:49:04;;;;;;;98.38;57.97;;;5.20;99.90;;;;;;5012656;28;20025;-54
2021/05/07 04:51:30;;;;;;;102.22;62.65;;;5.30;99.90;;;;;;5029931;28;20033;-57
2021/05/07 04:53:56;;;;;;;80.90;49.92;;;5.20;99.90;;;;;;5028864;28;20029;-55
2021/05/07 04:56:22;;;;;;;54.35;37.22;;;5.30;99.90;;;;;;5030211;28;20086;-56
2021/05/07 04:58:48;;;;;;;65.40;42.67;;;5.30;99.90;;;;;;5030671;28;20486;-59
2021/05/07 05:01:14;;;;;;;52.55;34.90;;;5.40;99.90;;;;;;5031028;28;20398;-56
2021/05/07 05:03:39;;;;;;;59.45;37.03;;;5.40;99.90;;;;;;5026211;28;20026;-58
2021/05/07 05:06:05;;;;;;;51.47;35.13;;;5.40;99.90;;;;;;5028892;28;20033;-56
2021/05/07 05:08:31;;;;;;;56.10;36.17;;;5.40;99.90;;;;;;5029289;28;20037;-57
2021/05/07 05:10:57;;;;;;;60.55;37.95;;;5.40;99.90;;;;;;5029769;28;20116;-58
2021/05/07 05:13:24;;;;;;;59.17;34.42;;;5.50;99.90;;;;;;5029323;28;20564;-54
2021/05/07 05:15:50;;;;;;;51.22;34.53;;;5.50;99.90;;;;;;5029099;28;20407;-54
2021/05/07 05:18:31;;;;;;;55.58;34.78;;;5.40;99.90;;;;;;5029222;28;20036;-58
2021/05/07 05:20:59;;;;;;;52.83;35.17;;;5.40;99.90;;;;;;5027221;28;20029;-56
2021/05/07 05:23:26;;;;;;;56.97;37.70;;;5.60;99.90;;;;;;5028860;28;20029;-58
2021/05/07 05:25:52;;;;;;;51.40;35.08;;;5.70;99.90;;;;;;5029486;28;20018;-57
2021/05/07 05:28:18;;;;;;;52.20;31.75;;;5.80;99.90;;;;;;5028915;28;20053;-58
2021/05/07 05:30:44;;;;;;;49.13;31.38;;;6.20;99.90;;;;;;5028820;28;20502;-57
2021/05/07 05:33:09;;;;;;;51.28;31.70;;;6.60;99.90;;;;;;5023594;28;20155;-60
2021/05/07 05:35:35;;;;;;;41.40;28.35;;;6.70;99.90;;;;;;5029066;28;20037;-58
2021/05/07 05:38:01;;;;;;;41.40;29.73;;;6.70;99.90;;;;;;5028994;28;20029;-57
2021/05/07 05:40:27;;;;;;;41.88;28.42;;;6.70;99.90;;;;;;5028825;28;20035;-54
2021/05/07 05:42:53;;;;;;;43.83;28.88;;;6.80;99.90;;;;;;5028910;28;20017;-56
2021/05/07 05:45:18;;;;;;;43.97;32.25;;;6.90;99.90;;;;;;5028212;28;20557;-58
2021/05/07 05:47:44;;;;;;;39.78;28.77;;;6.80;99.90;;;;;;5027701;28;20072;-54
2021/05/07 05:50:10;;;;;;;42.13;30.27;;;6.70;99.90;;;;;;5028926;28;20104;-56
2021/05/07 05:52:36;;;;;;;42.10;26.58;;;7.20;99.90;;;;;;5029275;28;20030;-57
2021/05/07 05:55:02;;;;;;;36.47;27.00;;;7.40;99.90;;;;;;5032961;28;20088;-56
2021/05/07 05:57:28;;;;;;;36.55;27.63;;;7.80;99.90;;;;;;5033033;28;20013;-57
2021/05/07 05:59:53;;;;;;;41.97;28.23;;;7.70;99.90;;;;;;5016825;28;20395;-58
2021/05/07 06:02:19;;;;;;;40.03;28.23;;;7.70;99.90;;;;;;5032801;28;20022;-58
2021/05/07 06:04:45;;;;;;;37.92;28.50;;;7.80;99.90;;;;;;5033261;28;20025;-57
2021/05/07 06:07:10;;;;;;;35.72;26.35;;;8.30;99.90;;;;;;5032497;28;20022;-55
2021/05/07 06:09:36;;;;;;;35.55;24.73;;;8.80;99.90;;;;;;5032624;28;20060;-58
2021/05/07 06:12:06;;;;;;;40.10;27.42;;;9.50;99.90;;;;;;5032252;28;20025;-56
2021/05/07 06:14:35;;;;;;;36.55;26.75;;;10.10;99.90;;;;;;5029795;28;20037;-57
2021/05/07 06:17:01;;;;;;;36.00;28.08;;;9.90;99.90;;;;;;5032403;28;20026;-56
2021/05/07 06:19:26;;;;;;;39.22;27.20;;;9.40;99.90;;;;;;5029079;28;20033;-58
2021/05/07 06:21:52;;;;;;;34.33;25.95;;;9.60;99.90;;;;;;5032247;28;20033;-58
2021/05/07 06:24:17;;;;;;;41.85;28.70;;;9.30;99.90;;;;;;5024473;28;20491;-57
2021/05/07 06:26:43;;;;;;;35.90;27.98;;;8.90;99.90;;;;;;5032382;28;20033;-60
2021/05/07 06:29:09;;;;;;;43.92;28.38;;;8.80;99.90;;;;;;5032100;28;20033;-57
2021/05/07 06:31:34;;;;;;;44.47;30.27;;;8.50;99.90;;;;;;5026989;28;20187;-57
2021/05/07 06:34:00;;;;;;;40.10;30.33;;;8.20;99.90;;;;;;5032412;28;20032;-57
2021/05/07 06:36:28;;;;;;;43.03;30.30;;;7.90;99.90;;;;;;5032567;28;20021;-57
2021/05/07 06:38:53;;;;;;;39.47;28.65;;;7.70;99.90;;;;;;5018395;28;20044;-58
2021/05/07 06:41:21;;;;;;;39.50;29.02;;;7.50;99.90;;;;;;5032462;28;20021;-57
2021/05/07 06:43:47;;;;;;;48.83;30.70;;;7.30;99.90;;;;;;5031706;28;20033;-58
2021/05/07 06:46:12;;;;;;;41.72;31.33;;;7.20;99.90;;;;;;5029225;28;20390;-58
2021/05/07 06:48:38;;;;;;;42.20;29.58;;;7.10;99.90;;;;;;5027330;28;20402;-56
2021/05/07 06:51:03;;;;;;;49.53;32.85;;;7.10;99.90;;;;;;5032189;28;20079;-57
2021/05/07 06:53:29;;;;;;;48.58;31.27;;;7.00;99.90;;;;;;5032044;28;20025;-58
2021/05/07 06:55:54;;;;;;;42.72;30.33;;;6.90;99.90;;;;;;5031725;28;20025;-57
2021/05/07 06:58:20;;;;;;;42.83;30.17;;;6.90;99.90;;;;;;5031814;28;20193;-54
2021/05/07 07:00:48;;;;;;;44.15;30.52;;;6.80;99.90;;;;;;5031534;28;20148;-58
2021/05/07 07:03:14;;;;;;;47.85;31.88;;;6.70;99.90;;;;;;5022279;28;20483;-57
2021/05/07 07:05:39;;;;;;;30.67;20.20;;;6.60;99.90;;;;;;5027998;28;20087;-58
2021/05/07 07:08:05;;;;;;;26.50;18.27;;;6.50;99.90;;;;;;5030147;28;20067;-56
2021/05/07 07:10:31;;;;;;;27.40;18.00;;;6.20;99.90;;;;;;5032072;28;20510;-56
2021/05/07 07:12:57;;;;;;;27.48;18.50;;;6.00;99.90;;;;;;5031535;28;20407;-56
2021/05/07 07:15:22;;;;;;;25.63;17.20;;;5.40;99.90;;;;;;5031723;28;20033;-55
2021/05/07 07:17:48;;;;;;;25.17;16.50;;;5.30;99.90;;;;;;5031483;28;20549;-57
2021/05/07 07:20:14;;;;;;;23.02;15.77;;;5.20;99.90;;;;;;5024285;28;20471;-57
2021/05/07 07:22:39;;;;;;;23.88;16.27;;;5.10;99.90;;;;;;5033754;28;20422;-57
2021/05/07 07:25:06;;;;;;;23.73;16.48;;;5.00;99.90;;;;;;5039052;28;20025;-58
2021/05/07 07:27:31;;;;;;;24.25;16.48;;;5.00;99.90;;;;;;5041212;28;20087;-58
2021/05/07 07:29:57;;;;;;;20.70;14.90;;;5.20;99.90;;;;;;5034985;28;20426;-58
2021/05/07 07:32:22;;;;;;;23.77;16.05;;;5.30;99.90;;;;;;5030497;28;20037;-59
2021/05/07 07:34:48;;;;;;;22.85;14.32;;;5.40;99.90;;;;;;5031358;28;20026;-57
2021/05/07 07:37:14;;;;;;;23.27;16.05;;;5.50;99.90;;;;;;5021235;28;20028;-58
2021/05/07 07:39:40;;;;;;;23.52;16.35;;;5.60;99.90;;;;;;5017227;28;20137;-54
2021/05/07 07:42:06;;;;;;;22.38;14.13;;;5.70;99.90;;;;;;5030810;28;20025;-57
2021/05/07 07:44:31;;;;;;;21.30;14.43;;;5.90;99.90;;;;;;5031227;28;20457;-57
2021/05/07 07:46:57;;;;;;;19.88;14.30;;;6.00;99.90;;;;;;5030306;28;20035;-58
2021/05/07 07:49:23;;;;;;;22.63;15.77;;;6.00;99.90;;;;;;5029999;28;20065;-56
2021/05/07 07:51:48;;;;;;;21.98;16.30;;;5.90;99.90;;;;;;5030667;28;20125;-53
2021/05/07 07:54:14;;;;;;;25.08;16.80;;;5.90;99.90;;;;;;5031358;28;20371;-56
2021/05/07 07:56:40;;;;;;;21.95;16.77;;;5.90;99.90;;;;;;5012665;28;20940;-57
2021/05/07 07:59:06;;;;;;;21.15;14.98;;;6.00;99.90;;;;;;5030759;28;20029;-56
2021/05/07 08:01:32;;;;;;;22.83;16.98;;;6.20;99.90;;;;;;5021997;28;20060;-57
2021/05/07 08:03:58;;;;;;;22.15;16.27;;;6.50;99.90;;;;;;5031080;28;20430;-57
2021/05/07 08:06:24;;;;;;;22.98;17.05;;;6.60;99.90;;;;;;5024629;28;20029;-57
2021/05/07 08:08:50;;;;;;;20.33;14.40;;;6.80;99.90;;;;;;5030242;28;20546;-57
2021/05/07 08:11:16;;;;;;;19.38;14.68;;;6.90;99.90;;;;;;5028251;28;20540;-56
2021/05/07 08:13:41;;;;;;;22.85;14.85;;;6.80;99.90;;;;;;5028752;28;20030;-54
2021/05/07 08:16:07;;;;;;;24.33;16.33;;;7.10;99.90;;;;;;5028878;28;20091;-57
2021/05/07 08:18:33;;;;;;;25.13;15.48;;;7.10;99.90;;;;;;5030954;28;20048;-55
2021/05/07 08:20:58;;;;;;;20.45;15.25;;;6.90;99.90;;;;;;5030468;28;20470;-54
2021/05/07 08:23:24;;;;;;;29.90;20.05;;;7.20;99.90;;;;;;5029385;28;20029;-55
2021/05/07 08:25:50;;;;;;;25.67;17.63;;;7.10;99.90;;;;;;5029650;28;20057;-57
2021/05/07 08:28:15;;;;;;;26.38;18.08;;;7.10;99.90;;;;;;5029827;28;20143;-55
2021/05/07 08:30:41;;;;;;;39.15;23.92;;;7.10;99.90;;;;;;5012785;28;20026;-56
2021/05/07 08:33:07;;;;;;;27.92;18.80;;;7.20;99.90;;;;;;5007601;28;20044;-55
2021/05/07 08:35:33;;;;;;;31.75;21.60;;;7.00;99.90;;;;;;5026144;28;20026;-53
2021/05/07 08:37:59;;;;;;;25.52;17.67;;;6.90;99.90;;;;;;5028531;28;20051;-56
2021/05/07 08:40:25;;;;;;;27.33;17.63;;;6.60;99.90;;;;;;5029997;28;20138;-55
2021/05/07 08:42:51;;;;;;;20.70;14.02;;;6.50;99.90;;;;;;5029672;28;20025;-56
2021/05/07 08:45:17;;;;;;;15.43;10.07;;;6.20;99.90;;;;;;5029518;28;20140;-56
2021/05/07 08:47:43;;;;;;;16.80;11.05;;;5.80;99.90;;;;;;5037596;28;20025;-57
2021/05/07 08:50:10;;;;;;;12.77;8.55;;;5.60;99.90;;;;;;5026921;28;20109;-57
2021/05/07 08:52:36;;;;;;;10.88;7.10;;;5.50;99.90;;;;;;5028455;28;20041;-56
2021/05/07 08:55:06;;;;;;;11.52;6.68;;;5.50;99.90;;;;;;5028072;28;20158;-53
2021/05/07 08:57:32;;;;;;;7.10;5.28;;;5.50;99.90;;;;;;5029031;28;20021;-57
2021/05/07 08:59:58;;;;;;;9.30;3.95;;;5.80;99.90;;;;;;5021286;28;20017;-57
2021/05/07 09:02:31;;;;;;;6.30;3.33;;;6.00;99.90;;;;;;5023246;28;20048;-57
2021/05/07 09:04:58;;;;;;;4.45;3.25;;;6.00;99.90;;;;;;5029141;28;20043;-54
2021/05/07 09:07:25;;;;;;;3.42;2.40;;;5.80;99.90;;;;;;5028193;28;20045;-56
2021/05/07 09:09:54;;;;;;;5.53;3.00;;;5.80;99.90;;;;;;5029235;28;20039;-56
2021/05/07 09:12:31;;;;;;;3.78;2.60;;;6.10;99.90;;;;;;5028579;28;20033;-57
2021/05/07 09:14:58;;;;;;;2.80;1.95;;;6.30;99.90;;;;;;5027476;28;20034;-55
2021/05/07 09:17:26;;;;;;;4.60;2.35;;;6.80;99.90;;;;;;5026182;28;20040;-56
2021/05/07 09:20:08;;;;;;;3.15;2.40;;;7.80;99.90;;;;;;5014891;28;20120;-57
2021/05/07 09:22:34;;;;;;;2.60;2.25;;;8.00;99.90;;;;;;5023468;28;20570;-55
2021/05/07 09:25:17;;;;;;;2.65;2.30;;;8.90;99.90;;;;;;5029165;28;20043;-55
2021/05/07 09:27:44;;;;;;;1.98;1.77;;;9.30;99.90;;;;;;5028634;28;20029;-57
2021/05/07 09:30:27;;;;;;;1.70;1.60;;;9.30;99.90;;;;;;5027360;28;20044;-58
2021/05/07 09:32:54;;;;;;;2.78;2.15;;;8.90;99.90;;;;;;5023220;28;20037;-59
2021/05/07 09:35:24;;;;;;;2.72;1.95;;;8.40;99.90;;;;;;5019313;28;20017;-56
2021/05/07 09:37:55;;;;;;;2.97;2.05;;;8.70;99.90;;;;;;5017370;28;20563;-54
2021/05/07 09:40:20;;;;;;;3.70;1.70;;;8.90;99.90;;;;;;5015118;28;20029;-56
2021/05/07 09:42:47;;;;;;;2.70;2.00;;;9.60;99.90;;;;;;5019921;28;20491;-55
2021/05/07 09:45:19;;;;;;;2.70;2.00;;;9.80;99.90;;;;;;5021067;28;20036;-56
2021/05/07 09:47:47;;;;;;;2.35;2.15;;;10.00;99.90;;;;;;5004563;28;20034;-55
2021/05/07 09:50:13;;;;;;;3.55;2.40;;;10.10;99.90;;;;;;5018962;28;20072;-57
2021/05/07 09:52:39;;;;;;;2.47;2.28;;;10.70;99.90;;;;;;5021878;28;20049;-57
2021/05/07 09:55:06;;;;;;;2.80;2.50;;;11.50;99.90;;;;;;5026389;28;20030;-58
2021/05/07 09:57:32;;;;;;;2.65;2.28;;;11.60;99.90;;;;;;5024207;28;20022;-59
2021/05/07 10:00:01;;;;;;;2.55;2.05;;;11.60;99.90;;;;;;5025567;28;20025;-56
2021/05/07 10:02:26;;;;;;;3.13;2.70;;;11.50;99.90;;;;;;5021204;28;20036;-56
2021/05/07 10:04:53;;;;;;;6.68;2.90;;;10.90;99.90;;;;;;5020053;28;20386;-57
2021/05/07 10:07:18;;;;;;;3.05;2.67;;;10.40;99.90;;;;;;5009774;28;20041;-58
2021/05/07 10:09:44;;;;;;;2.65;2.33;;;9.80;99.90;;;;;;5026334;28;20041;-57
2021/05/07 10:12:14;;;;;;;2.95;2.58;;;9.30;99.90;;;;;;5028392;28;20021;-58
2021/05/07 10:14:46;;;;;;;2.95;2.42;;;8.90;99.90;;;;;;5027794;28;20071;-55
2021/05/07 10:17:13;;;;;;;3.50;2.70;;;9.10;99.90;;;;;;5028058;28;20029;-57
2021/05/07 10:19:45;;;;;;;2.85;2.45;;;9.10;99.90;;;;;;5026571;28;20104;-58
2021/05/07 10:22:12;;;;;;;4.82;2.20;;;9.60;99.90;;;;;;5028793;28;20048;-55
2021/05/07 10:24:39;;;;;;;2.53;2.08;;;10.30;99.90;;;;;;5028876;28;20063;-55
2021/05/07 10:27:19;;;;;;;3.55;2.80;;;10.90;99.90;;;;;;5028499;28;20446;-57
2021/05/07 10:29:59;;;;;;;4.65;3.88;;;10.50;99.90;;;;;;5030088;28;20027;-53
2021/05/07 10:32:38;;;;;;;5.80;3.70;;;9.90;99.90;;;;;;5027374;28;20443;-57
2021/05/07 10:35:05;;;;;;;5.07;3.45;;;9.50;99.90;;;;;;5028666;28;20026;-57
2021/05/07 10:37:42;;;;;;;4.10;3.70;;;9.60;99.90;;;;;;5028800;28;20025;-56
2021/05/07 10:40:11;;;;;;;7.13;4.05;;;10.00;99.90;;;;;;5030738;28;20395;-56
2021/05/07 10:42:37;;;;;;;4.75;3.72;;;10.80;99.90;;;;;;5024985;28;20398;-53
2021/05/07 10:45:04;;;;;;;4.90;2.95;;;11.20;99.90;;;;;;5030464;28;20112;-55
2021/05/07 10:47:37;;;;;;;3.92;2.50;;;11.60;99.90;;;;;;5031900;28;20064;-58
2021/05/07 10:50:16;;;;;;;4.65;2.78;;;12.10;99.50;;;;;;5014883;28;20021;-57
2021/05/07 10:52:42;;;;;;;4.00;2.35;;;11.90;99.90;;;;;;5028539;28;20040;-58
2021/05/07 10:55:09;;;;;;;5.30;2.33;;;12.00;99.90;;;;;;5032445;28;20025;-55
2021/05/07 10:57:38;;;;;;;3.42;2.00;;;11.50;99.50;;;;;;5030882;28;20025;-57
2021/05/07 11:00:16;;;;;;;3.70;2.50;;;11.30;97.90;;;;;;5032786;28;20040;-58
2021/05/07 11:02:51;;;;;;;8.52;2.80;;;10.80;99.80;;;;;;5027707;28;20550;-57
2021/05/07 11:05:35;;;;;;;4.85;2.65;;;11.00;99.90;;;;;;5024805;28;20083;-57
2021/05/07 11:08:01;;;;;;;5.40;3.00;;;10.70;99.90;;;;;;5030456;28;20479;-54
2021/05/07 11:10:27;;;;;;;7.18;3.08;;;10.50;99.90;;;;;;5031873;28;20057;-57
2021/05/07 11:12:53;;;;;;;5.75;3.25;;;10.80;99.20;;;;;;5017195;28;20380;-56
2021/05/07 11:15:20;;;;;;;7.30;3.58;;;11.00;98.60;;;;;;5010266;28;20022;-57
2021/05/07 11:17:45;;;;;;;6.38;3.85;;;11.00;99.10;;;;;;5026783;28;20079;-55
2021/05/07 11:20:13;;;;;;;6.72;4.03;;;11.20;97.90;;;;;;5032513;28;20014;-56
2021/05/07 11:22:40;;;;;;;9.48;3.75;;;11.10;98.20;;;;;;5031679;28;20036;-57
2021/05/07 11:25:09;;;;;;;7.70;4.28;;;10.80;99.20;;;;;;5030762;28;20634;-57
2021/05/07 11:27:37;;;;;;;8.80;3.97;;;10.80;98.20;;;;;;5031282;28;20095;-56
2021/05/07 11:30:02;;;;;;;8.45;4.00;;;10.70;95.90;;;;;;5030981;28;20075;-56
2021/05/07 11:32:28;;;;;;;5.97;3.60;;;10.70;98.50;;;;;;5023567;28;20037;-57
2021/05/07 11:34:53;;;;;;;5.88;3.47;;;10.20;97.90;;;;;;5032727;28;20064;-54
2021/05/07 11:37:20;;;;;;;6.32;3.80;;;10.20;98.40;;;;;;5031263;28;20159;-54
2021/05/07 11:39:56;;;;;;;6.72;3.00;;;10.10;99.40;;;;;;5014250;28;20083;-54
2021/05/07 11:42:34;;;;;;;5.90;3.10;;;10.00;99.80;;;;;;5031046;28;20044;-58
2021/05/07 11:45:03;;;;;;;7.07;2.00;;;10.60;99.60;;;;;;5029240;28;20262;-57
2021/05/07 11:47:32;;;;;;;5.43;1.75;;;10.90;96.30;;;;;;5028236;28;20491;-56
2021/05/07 11:49:58;;;;;;;3.05;1.60;;;11.10;96.50;;;;;;5029756;28;20678;-57
2021/05/07 11:52:44;;;;;;;3.63;1.50;;;10.90;96.20;;;;;;5028379;28;20493;-56
2021/05/07 11:55:12;;;;;;;2.03;1.48;;;11.40;93.80;;;;;;5032825;28;20034;-56
2021/05/07 11:57:37;;;;;;;4.35;1.40;;;11.70;94.30;;;;;;5029955;28;20052;-57
2021/05/07 12:00:07;;;;;;;2.75;1.60;;;11.50;92.80;;;;;;5030591;28;20029;-56
2021/05/07 12:02:33;;;;;;;5.32;1.63;;;11.50;94.70;;;;;;5029896;28;20439;-55
2021/05/07 12:04:58;;;;;;;3.85;1.50;;;11.80;94.60;;;;;;5030071;28;20025;-57
2021/05/07 12:07:25;;;;;;;3.22;1.75;;;11.80;91.50;;;;;;5029943;28;20059;-56
2021/05/07 12:09:52;;;;;;;5.47;1.75;;;11.80;91.80;;;;;;5014687;28;20056;-56
2021/05/07 12:12:18;;;;;;;3.55;2.05;;;11.80;90.60;;;;;;5029776;28;20025;-55
2021/05/07 12:14:50;;;;;;;4.10;2.88;;;11.50;91.30;;;;;;5028830;28;20033;-57
2021/05/07 12:17:19;;;;;;;6.05;3.05;;;11.70;84.70;;;;;;5028351;28;20148;-57
2021/05/07 12:19:59;;;;;;;2.78;1.40;;;11.50;91.80;;;;;;5029454;28;20021;-56
2021/05/07 12:22:25;;;;;;;3.28;1.30;;;11.50;92.20;;;;;;5036516;28;20113;-58
2021/05/07 12:24:50;;;;;;;3.17;1.40;;;11.20;92.70;;;;;;5042662;28;20036;-59
2021/05/07 12:27:27;;;;;;;3.97;1.77;;;11.30;92.70;;;;;;5028279;28;20551;-58
2021/05/07 12:29:52;;;;;;;5.00;1.60;;;11.10;93.10;;;;;;5027695;28;20637;-54
2021/05/07 12:32:22;;;;;;;2.60;1.50;;;11.20;92.40;;;;;;5029290;28;20026;-53
2021/05/07 12:34:59;;;;;;;3.90;1.33;;;11.10;91.70;;;;;;5025879;28;20040;-58
2021/05/07 12:37:35;;;;;;;3.95;1.70;;;11.50;90.20;;;;;;5027941;28;20108;-56
2021/05/07 12:40:01;;;;;;;1.73;1.10;;;11.60;90.60;;;;;;5033466;28;20570;-57
2021/05/07 12:42:26;;;;;;;1.45;1.15;;;11.80;90.20;;;;;;5030062;28;20120;-56